Chantaco — FMLM — position and weather

sailwx.info

Track history (hours):
 
Tides and Currents Weather Stations Pressure Air Temp Water Temp Dewpoint Dewpoint Depression Visibility Wind Speed Wind Dir Waves Ship Positions

Chantaco

Last reported at 2015-Jan-30 21:31 UTC. Time now 2015-Jan-30 21:43 UTC.
Position N 51°55' E 004°13'.

Length 143 m; draft 9 m.

Type: Tanker. MMSI: 228330700.

Date/timePositionNaut miles runAvg speedWind from/ knotsBaromVisibWave heightAir tempDewpointWater temp
2015-Jan-30 21:31N 51°55' E 004°13'0 0.0
2015-Jan-30 20:31N 51°55' E 004°13'0 0.0
2015-Jan-30 19:31N 51°55' E 004°13'0 0.0
2015-Jan-30 18:31N 51°55' E 004°13'0 0.0
2015-Jan-30 17:31N 51°55' E 004°13'0 0.0
2015-Jan-30 16:31N 51°55' E 004°13'0 0.0
2015-Jan-30 15:31N 51°55' E 004°13'0 0.0
2015-Jan-30 14:31N 51°55' E 004°13'0 0.0
2015-Jan-30 13:31N 51°55' E 004°13'0 0.0
2015-Jan-30 12:31N 51°55' E 004°13'0 0.0
2015-Jan-30 11:31N 51°55' E 004°13'0 0.0
2015-Jan-30 10:31N 51°55' E 004°13'0 0.0
2015-Jan-30 09:31N 51°55' E 004°13'0 0.0
2015-Jan-30 08:31N 51°55' E 004°13'0 0.0
2015-Jan-30 07:33N 51°55' E 004°13'0 0.0
2015-Jan-30 06:33N 51°55' E 004°13'0 0.0
2015-Jan-30 05:33N 51°55' E 004°13'0 0.0
2015-Jan-30 04:33N 51°55' E 004°13'0 0.0
2015-Jan-30 03:33N 51°55' E 004°13'0 0.0
2015-Jan-30 02:33N 51°55' E 004°13'0 0.0
2015-Jan-30 01:33N 51°55' E 004°13'0 0.0
2015-Jan-30 00:33N 51°55' E 004°13'3 3.2
2015-Jan-29 23:33N 51°57' E 004°09'1111.1
2015-Jan-29 22:33N 52°01' E 003°52'4 4.4
2015-Jan-29 21:33N 52°05' E 003°47'8 7.9
2015-Jan-29 20:33N 52°12' E 003°44'5 4.9
2015-Jan-29 19:33N 52°13' E 003°37'4 3.3
2015-Jan-29 18:27N 52°14' E 003°31'2 1.6
2015-Jan-29 17:32N 52°13' E 003°32'3 3.0
2015-Jan-29 16:33N 52°13' E 003°37'3 3.3
2015-Jan-29 15:34N 52°13' E 003°42'4 4.3
2015-Jan-29 14:33N 52°14' E 003°35'5 2.5
2015-Jan-29 12:23N 52°08' E 003°33'2 0.4
2015-Jan-29 08:18N 52°10' E 003°31'2 2.8
2015-Jan-29 07:33N 52°08' E 003°34'3 2.6
2015-Jan-29 06:33N 52°07' E 003°37'2 1.8
2015-Jan-29 05:33N 52°05' E 003°36'9 2.8
2015-Jan-29 02:19N 52°14' E 003°34'2 2.6
2015-Jan-29 01:25N 52°12' E 003°31'3 2.8
2015-Jan-29 00:18N 52°09' E 003°32'2 2.7
2015-Jan-28 23:33N 52°08' E 003°35'3 2.7
2015-Jan-28 22:33N 52°07' E 003°38'3 2.8
2015-Jan-28 21:33N 52°07' E 003°43'2 1.9
2015-Jan-28 20:31N 52°09' E 003°43'0 0.1
2015-Jan-28 19:19N 52°09' E 003°43'0 0.1
2015-Jan-28 18:28N 52°09' E 003°43'0 0.0
2015-Jan-28 17:28N 52°09' E 003°43'0 0.0
2015-Jan-28 16:19N 52°09' E 003°43'0 0.0
2015-Jan-28 15:31N 52°09' E 003°43'0 0.0
2015-Jan-28 14:31N 52°09' E 003°43'0 0.0
2015-Jan-28 07:10N 52°09' E 003°43'0 0.0
2015-Jan-28 06:28N 52°09' E 003°43'0 0.0
2015-Jan-28 05:31N 52°09' E 003°43'0 0.1
2015-Jan-28 04:31N 52°09' E 003°43'0 0.2
2015-Jan-28 03:31N 52°09' E 003°43'0 0.1
2015-Jan-28 02:34N 52°09' E 003°43'0 0.1
2015-Jan-28 00:30N 52°09' E 003°43'0 0.1
2015-Jan-27 23:33N 52°09' E 003°43'0 0.0
2015-Jan-27 22:27N 52°09' E 003°43'0 0.0
2015-Jan-27 21:33N 52°09' E 003°43'0 0.0
2015-Jan-27 20:33N 52°09' E 003°43'0 0.0
2015-Jan-27 19:27N 52°09' E 003°43'0 0.1
2015-Jan-27 18:33N 52°09' E 003°43'0 0.1
2015-Jan-27 17:30N 52°09' E 003°43'0 0.1
2015-Jan-27 16:24N 52°09' E 003°43'0 0.1
2015-Jan-27 15:27N 52°09' E 003°43'0 0.0
2015-Jan-27 14:27N 52°09' E 003°43'0 0.0
2015-Jan-27 13:31N 52°09' E 003°43'12010.0
2015-Jan-27 01:33N 54°04' E 004°40'1010.1
2015-Jan-27 00:33N 54°05' E 004°57'10 9.8
2015-Jan-26 23:33N 54°06' E 005°14'10 9.8
2015-Jan-26 22:32N 54°07' E 005°30'1010.1
2015-Jan-26 21:33N 54°09' E 005°47'1211.3
2015-Jan-26 20:30N 54°10' E 006°07'2612.4
2015-Jan-26 18:25N 54°12' E 006°51'1112.5
2015-Jan-26 17:33N 54°12' E 007°10'1312.5
2015-Jan-26 16:33N 54°12' E 007°31'1212.2
2015-Jan-26 15:33N 54°06' E 007°49'1211.7
2015-Jan-26 14:33N 54°01' E 008°07'1110.5
2015-Jan-26 13:33N 53°59' E 008°25'10 9.6
2015-Jan-26 12:33N 53°56' E 008°40'1211.5
2015-Jan-26 11:34N 53°51' E 008°58'1313.2
2015-Jan-26 10:33N 53°51' E 009°20'1514.7
2015-Jan-26 09:33N 53°38' E 009°32'1212.3
2015-Jan-26 08:34N 53°33' E 009°51'4 4.0
2015-Jan-26 07:29N 53°30' E 009°57'0 0.0
2015-Jan-26 06:32N 53°30' E 009°57'0 0.0
2015-Jan-26 05:29N 53°30' E 009°57'0 0.0
2015-Jan-26 04:29N 53°30' E 009°57'0 0.0
2015-Jan-26 03:23N 53°30' E 009°57'0 0.0
2015-Jan-26 02:29N 53°30' E 009°57'0 0.0
2015-Jan-26 01:32N 53°30' E 009°57'0 0.0
2015-Jan-26 00:32N 53°30' E 009°57'0 0.0
2015-Jan-25 23:31N 53°30' E 009°57'0 0.0
2015-Jan-25 22:28N 53°30' E 009°57'0 0.0
2015-Jan-25 21:13N 53°30' E 009°57'0 0.0
2015-Jan-25 20:28N 53°30' E 009°57'0 0.0
2015-Jan-25 19:28N 53°30' E 009°57'0 0.0
2015-Jan-25 18:25N 53°30' E 009°57'0 0.0
2015-Jan-25 17:31N 53°30' E 009°57'0 0.0
2015-Jan-25 16:22N 53°30' E 009°57'0 0.0
2015-Jan-25 15:31N 53°30' E 009°57'0 0.0
2015-Jan-25 14:28N 53°30' E 009°57'0 0.0
2015-Jan-25 13:28N 53°30' E 009°57'0 0.0
2015-Jan-25 12:28N 53°30' E 009°57'0 0.0
2015-Jan-25 11:28N 53°30' E 009°57'0 0.0
2015-Jan-25 10:28N 53°30' E 009°57'0 0.0
2015-Jan-25 09:28N 53°30' E 009°57'0 0.0
2015-Jan-25 08:31N 53°30' E 009°57'0 0.0
2015-Jan-25 07:25N 53°30' E 009°57'0 0.0
2015-Jan-25 06:31N 53°30' E 009°57'0 0.0
2015-Jan-25 05:28N 53°30' E 009°57'0 0.0
2015-Jan-25 04:31N 53°30' E 009°57'0 0.0
2015-Jan-25 03:28N 53°30' E 009°57'0 0.0
2015-Jan-25 02:31N 53°30' E 009°57'0 0.0
2015-Jan-25 01:28N 53°30' E 009°57'0 0.0
2015-Jan-25 00:31N 53°30' E 009°57'0 0.0
2015-Jan-24 23:31N 53°30' E 009°57'0 0.0
2015-Jan-24 22:28N 53°30' E 009°57'0 0.0
2015-Jan-24 21:28N 53°30' E 009°57'0 0.0
2015-Jan-24 20:28N 53°30' E 009°57'0 0.0
2015-Jan-24 19:31N 53°30' E 009°57'0 0.0
2015-Jan-24 18:31N 53°30' E 009°57'0 0.0
2015-Jan-24 17:28N 53°30' E 009°57'0 0.0
2015-Jan-24 16:28N 53°30' E 009°57'0 0.0
2015-Jan-24 15:28N 53°30' E 009°57'0 0.0
2015-Jan-24 14:31N 53°30' E 009°57'0 0.0
2015-Jan-24 13:34N 53°30' E 009°57'0 0.0
2015-Jan-24 12:33N 53°30' E 009°57'0 0.0
2015-Jan-24 11:33N 53°30' E 009°57'0 0.0
2015-Jan-24 10:33N 53°30' E 009°57'0 0.0
2015-Jan-24 09:33N 53°30' E 009°57'0 0.0
2015-Jan-24 08:33N 53°30' E 009°57'0 0.0
2015-Jan-24 07:33N 53°30' E 009°57'0 0.0
2015-Jan-24 06:33N 53°30' E 009°57'0 0.0
2015-Jan-24 05:33N 53°30' E 009°57'0 0.0
2015-Jan-24 04:33N 53°30' E 009°57'0 0.0
2015-Jan-24 03:27N 53°30' E 009°57'0 0.0
2015-Jan-24 02:33N 53°30' E 009°57'0 0.0
2015-Jan-24 01:30N 53°30' E 009°57'0 0.0
2015-Jan-24 00:33N 53°30' E 009°57'0 0.0
2015-Jan-23 23:33N 53°30' E 009°57'0 0.0
2015-Jan-23 22:33N 53°30' E 009°57'0 0.1
2015-Jan-23 21:33N 53°30' E 009°57'5 5.4
2015-Jan-23 20:33N 53°33' E 009°49'1010.0
2015-Jan-23 19:33N 53°37' E 009°34'1010.2
2015-Jan-23 18:33N 53°45' E 009°24'1010.4
2015-Jan-23 17:33N 53°53' E 009°12'1110.9
2015-Jan-23 16:33N 53°50' E 008°54'1110.5
2015-Jan-23 15:33N 53°56' E 008°39'1312.8
2015-Jan-23 14:33N 53°60' E 008°18'1313.0
2015-Jan-23 13:33N 53°59' E 007°56'1614.3
2015-Jan-23 12:25N 53°55' E 007°29'1414.6
2015-Jan-23 11:28N 53°51' E 007°06'2814.8
2015-Jan-23 09:32N 53°44' E 006°20'1514.9
2015-Jan-23 08:33N 53°40' E 005°56'1515.0
2015-Jan-23 07:33N 53°35' E 005°32'1515.3
2015-Jan-23 06:33N 53°30' E 005°08'1515.1
2015-Jan-23 05:34N 53°25' E 004°44'1515.2
2015-Jan-23 04:33N 53°12' E 004°32'1514.8
2015-Jan-23 03:31N 52°58' E 004°20'1313.9
2015-Jan-23 02:33N 52°46' E 004°10'1413.7
2015-Jan-23 01:33N 52°35' E 003°57'1313.2
2015-Jan-23 00:33N 52°22' E 003°52'1312.9
2015-Jan-22 23:33N 52°09' E 003°55'1010.0
2015-Jan-22 22:33N 51°60' E 004°02'1313.2
2015-Jan-22 21:33N 51°54' E 004°20'1 0.9
2015-Jan-22 20:33N 51°54' E 004°22'0 0.0
2015-Jan-22 19:33N 51°54' E 004°22'0 0.0
2015-Jan-22 18:33N 51°54' E 004°22'0 0.0
2015-Jan-22 17:33N 51°54' E 004°22'0 0.0
2015-Jan-22 16:30N 51°54' E 004°22'0 0.0
2015-Jan-22 15:30N 51°54' E 004°22'0 0.0
2015-Jan-22 14:30N 51°54' E 004°22'0 0.0
2015-Jan-22 13:33N 51°54' E 004°22'0 0.0
2015-Jan-22 12:27N 51°54' E 004°22'0 0.0
2015-Jan-22 11:33N 51°54' E 004°22'0 0.0
2015-Jan-22 10:33N 51°54' E 004°22'0 0.0
2015-Jan-22 09:33N 51°54' E 004°22'0 0.0
2015-Jan-22 08:33N 51°54' E 004°22'0 0.0
2015-Jan-22 07:33N 51°54' E 004°22'0 0.0
2015-Jan-22 06:27N 51°54' E 004°22'0 0.0
2015-Jan-22 05:33N 51°54' E 004°22'0 0.0
2015-Jan-22 04:33N 51°54' E 004°22'0 0.0
2015-Jan-22 03:30N 51°54' E 004°22'0 0.0
2015-Jan-22 01:33N 51°54' E 004°22'0 0.0
2015-Jan-22 00:32N 51°54' E 004°22'0 0.0
2015-Jan-21 23:32N 51°54' E 004°22'0 0.0
2015-Jan-21 22:50N 51°54' E 004°22'0 0.0
2015-Jan-21 22:44N 51°54' E 004°22'0 0.0
2015-Jan-21 22:26N 51°54' E 004°22'0 0.0
2015-Jan-21 21:32N 51°54' E 004°22'0 0.0
2015-Jan-21 20:32N 51°54' E 004°22'0 0.0
2015-Jan-21 19:29N 51°54' E 004°22'0 0.0
2015-Jan-21 18:32N 51°54' E 004°22'0 0.0
2015-Jan-21 17:32N 51°54' E 004°22'0 0.0
2015-Jan-21 16:26N 51°54' E 004°22'0 0.0
2015-Jan-21 15:33N 51°54' E 004°22'0 0.0
2015-Jan-21 14:32N 51°54' E 004°22'0 0.3
2015-Jan-21 13:34N 51°54' E 004°22'10 9.5
2015-Jan-21 12:33N 51°58' E 004°08'1110.9
2015-Jan-21 11:33N 51°60' E 003°51'4410.9
2015-Jan-21 07:31N 51°47' E 002°43'1111.4
2015-Jan-21 06:32N 51°39' E 002°29'1212.6
2015-Jan-21 05:33N 51°30' E 002°16'1413.3
2015-Jan-21 04:28N 51°17' E 002°07'1213.4
2015-Jan-21 03:33N 51°09' E 001°52'1414.4
2015-Jan-21 02:33N 50°59' E 001°36'  
Track history (hours):
 
Tides and Currents Weather Stations Pressure Air Temp Water Temp Dewpoint Dewpoint Depression Visibility Wind Speed Wind Dir Waves Ship Positions

Chantaco

Last reported at 2015-Jan-30 21:31 UTC. Time now 2015-Jan-30 21:43 UTC.
Position N 51°55' E 004°13'.

Length 143 m; draft 9 m.

Type: Tanker. MMSI: 228330700.

Date/timePositionNaut miles runAvg speedWind from/ knotsBaromVisibWave heightAir tempDewpointWater temp
2015-Jan-30 21:31N 51°55' E 004°13'0 0.0
2015-Jan-30 20:31N 51°55' E 004°13'0 0.0
2015-Jan-30 19:31N 51°55' E 004°13'0 0.0
2015-Jan-30 18:31N 51°55' E 004°13'0 0.0
2015-Jan-30 17:31N 51°55' E 004°13'0 0.0
2015-Jan-30 16:31N 51°55' E 004°13'0 0.0
2015-Jan-30 15:31N 51°55' E 004°13'0 0.0
2015-Jan-30 14:31N 51°55' E 004°13'0 0.0
2015-Jan-30 13:31N 51°55' E 004°13'0 0.0
2015-Jan-30 12:31N 51°55' E 004°13'0 0.0
2015-Jan-30 11:31N 51°55' E 004°13'0 0.0
2015-Jan-30 10:31N 51°55' E 004°13'0 0.0
2015-Jan-30 09:31N 51°55' E 004°13'0 0.0
2015-Jan-30 08:31N 51°55' E 004°13'0 0.0
2015-Jan-30 07:33N 51°55' E 004°13'0 0.0
2015-Jan-30 06:33N 51°55' E 004°13'0 0.0
2015-Jan-30 05:33N 51°55' E 004°13'0 0.0
2015-Jan-30 04:33N 51°55' E 004°13'0 0.0
2015-Jan-30 03:33N 51°55' E 004°13'0 0.0
2015-Jan-30 02:33N 51°55' E 004°13'0 0.0
2015-Jan-30 01:33N 51°55' E 004°13'0 0.0
2015-Jan-30 00:33N 51°55' E 004°13'3 3.2
2015-Jan-29 23:33N 51°57' E 004°09'1111.1
2015-Jan-29 22:33N 52°01' E 003°52'4 4.4
2015-Jan-29 21:33N 52°05' E 003°47'8 7.9
2015-Jan-29 20:33N 52°12' E 003°44'5 4.9
2015-Jan-29 19:33N 52°13' E 003°37'4 3.3
2015-Jan-29 18:27N 52°14' E 003°31'2 1.6
2015-Jan-29 17:32N 52°13' E 003°32'3 3.0
2015-Jan-29 16:33N 52°13' E 003°37'3 3.3
2015-Jan-29 15:34N 52°13' E 003°42'4 4.3
2015-Jan-29 14:33N 52°14' E 003°35'5 2.5
2015-Jan-29 12:23N 52°08' E 003°33'2 0.4
2015-Jan-29 08:18N 52°10' E 003°31'2 2.8
2015-Jan-29 07:33N 52°08' E 003°34'3 2.6
2015-Jan-29 06:33N 52°07' E 003°37'2 1.8
2015-Jan-29 05:33N 52°05' E 003°36'9 2.8
2015-Jan-29 02:19N 52°14' E 003°34'2 2.6
2015-Jan-29 01:25N 52°12' E 003°31'3 2.8
2015-Jan-29 00:18N 52°09' E 003°32'2 2.7
2015-Jan-28 23:33N 52°08' E 003°35'3 2.7
2015-Jan-28 22:33N 52°07' E 003°38'3 2.8
2015-Jan-28 21:33N 52°07' E 003°43'2 1.9
2015-Jan-28 20:31N 52°09' E 003°43'0 0.1
2015-Jan-28 19:19N 52°09' E 003°43'0 0.1
2015-Jan-28 18:28N 52°09' E 003°43'0 0.0
2015-Jan-28 17:28N 52°09' E 003°43'0 0.0
2015-Jan-28 16:19N 52°09' E 003°43'0 0.0
2015-Jan-28 15:31N 52°09' E 003°43'0 0.0
2015-Jan-28 14:31N 52°09' E 003°43'0 0.0
2015-Jan-28 07:10N 52°09' E 003°43'0 0.0
2015-Jan-28 06:28N 52°09' E 003°43'0 0.0
2015-Jan-28 05:31N 52°09' E 003°43'0 0.1
2015-Jan-28 04:31N 52°09' E 003°43'0 0.2
2015-Jan-28 03:31N 52°09' E 003°43'0 0.1
2015-Jan-28 02:34N 52°09' E 003°43'0 0.1
2015-Jan-28 00:30N 52°09' E 003°43'0 0.1
2015-Jan-27 23:33N 52°09' E 003°43'0 0.0
2015-Jan-27 22:27N 52°09' E 003°43'0 0.0
2015-Jan-27 21:33N 52°09' E 003°43'0 0.0
2015-Jan-27 20:33N 52°09' E 003°43'0 0.0
2015-Jan-27 19:27N 52°09' E 003°43'0 0.1
2015-Jan-27 18:33N 52°09' E 003°43'0 0.1
2015-Jan-27 17:30N 52°09' E 003°43'0 0.1
2015-Jan-27 16:24N 52°09' E 003°43'0 0.1
2015-Jan-27 15:27N 52°09' E 003°43'0 0.0
2015-Jan-27 14:27N 52°09' E 003°43'0 0.0
2015-Jan-27 13:31N 52°09' E 003°43'12010.0
2015-Jan-27 01:33N 54°04' E 004°40'1010.1
2015-Jan-27 00:33N 54°05' E 004°57'10 9.8
2015-Jan-26 23:33N 54°06' E 005°14'10 9.8
2015-Jan-26 22:32N 54°07' E 005°30'1010.1
2015-Jan-26 21:33N 54°09' E 005°47'1211.3
2015-Jan-26 20:30N 54°10' E 006°07'2612.4
2015-Jan-26 18:25N 54°12' E 006°51'1112.5
2015-Jan-26 17:33N 54°12' E 007°10'1312.5
2015-Jan-26 16:33N 54°12' E 007°31'1212.2
2015-Jan-26 15:33N 54°06' E 007°49'1211.7
2015-Jan-26 14:33N 54°01' E 008°07'1110.5
2015-Jan-26 13:33N 53°59' E 008°25'10 9.6
2015-Jan-26 12:33N 53°56' E 008°40'1211.5
2015-Jan-26 11:34N 53°51' E 008°58'1313.2
2015-Jan-26 10:33N 53°51' E 009°20'1514.7
2015-Jan-26 09:33N 53°38' E 009°32'1212.3
2015-Jan-26 08:34N 53°33' E 009°51'4 4.0
2015-Jan-26 07:29N 53°30' E 009°57'0 0.0
2015-Jan-26 06:32N 53°30' E 009°57'0 0.0
2015-Jan-26 05:29N 53°30' E 009°57'0 0.0
2015-Jan-26 04:29N 53°30' E 009°57'0 0.0
2015-Jan-26 03:23N 53°30' E 009°57'0 0.0
2015-Jan-26 02:29N 53°30' E 009°57'0 0.0
2015-Jan-26 01:32N 53°30' E 009°57'0 0.0
2015-Jan-26 00:32N 53°30' E 009°57'0 0.0
2015-Jan-25 23:31N 53°30' E 009°57'0 0.0
2015-Jan-25 22:28N 53°30' E 009°57'0 0.0
2015-Jan-25 21:13N 53°30' E 009°57'0 0.0
2015-Jan-25 20:28N 53°30' E 009°57'0 0.0
2015-Jan-25 19:28N 53°30' E 009°57'0 0.0
2015-Jan-25 18:25N 53°30' E 009°57'0 0.0
2015-Jan-25 17:31N 53°30' E 009°57'0 0.0
2015-Jan-25 16:22N 53°30' E 009°57'0 0.0
2015-Jan-25 15:31N 53°30' E 009°57'0 0.0
2015-Jan-25 14:28N 53°30' E 009°57'0 0.0
2015-Jan-25 13:28N 53°30' E 009°57'0 0.0
2015-Jan-25 12:28N 53°30' E 009°57'0 0.0
2015-Jan-25 11:28N 53°30' E 009°57'0 0.0
2015-Jan-25 10:28N 53°30' E 009°57'0 0.0
2015-Jan-25 09:28N 53°30' E 009°57'0 0.0
2015-Jan-25 08:31N 53°30' E 009°57'0 0.0
2015-Jan-25 07:25N 53°30' E 009°57'0 0.0
2015-Jan-25 06:31N 53°30' E 009°57'0 0.0
2015-Jan-25 05:28N 53°30' E 009°57'0 0.0
2015-Jan-25 04:31N 53°30' E 009°57'0 0.0
2015-Jan-25 03:28N 53°30' E 009°57'0 0.0
2015-Jan-25 02:31N 53°30' E 009°57'0 0.0
2015-Jan-25 01:28N 53°30' E 009°57'0 0.0
2015-Jan-25 00:31N 53°30' E 009°57'0 0.0
2015-Jan-24 23:31N 53°30' E 009°57'0 0.0
2015-Jan-24 22:28N 53°30' E 009°57'0 0.0
2015-Jan-24 21:28N 53°30' E 009°57'0 0.0
2015-Jan-24 20:28N 53°30' E 009°57'0 0.0
2015-Jan-24 19:31N 53°30' E 009°57'0 0.0
2015-Jan-24 18:31N 53°30' E 009°57'0 0.0
2015-Jan-24 17:28N 53°30' E 009°57'0 0.0
2015-Jan-24 16:28N 53°30' E 009°57'0 0.0
2015-Jan-24 15:28N 53°30' E 009°57'0 0.0
2015-Jan-24 14:31N 53°30' E 009°57'0 0.0
2015-Jan-24 13:34N 53°30' E 009°57'0 0.0
2015-Jan-24 12:33N 53°30' E 009°57'0 0.0
2015-Jan-24 11:33N 53°30' E 009°57'0 0.0
2015-Jan-24 10:33N 53°30' E 009°57'0 0.0
2015-Jan-24 09:33N 53°30' E 009°57'0 0.0
2015-Jan-24 08:33N 53°30' E 009°57'0 0.0
2015-Jan-24 07:33N 53°30' E 009°57'0 0.0
2015-Jan-24 06:33N 53°30' E 009°57'0 0.0
2015-Jan-24 05:33N 53°30' E 009°57'0 0.0
2015-Jan-24 04:33N 53°30' E 009°57'0 0.0
2015-Jan-24 03:27N 53°30' E 009°57'0 0.0
2015-Jan-24 02:33N 53°30' E 009°57'0 0.0
2015-Jan-24 01:30N 53°30' E 009°57'0 0.0
2015-Jan-24 00:33N 53°30' E 009°57'0 0.0
2015-Jan-23 23:33N 53°30' E 009°57'0 0.0
2015-Jan-23 22:33N 53°30' E 009°57'0 0.1
2015-Jan-23 21:33N 53°30' E 009°57'5 5.4
2015-Jan-23 20:33N 53°33' E 009°49'1010.0
2015-Jan-23 19:33N 53°37' E 009°34'1010.2
2015-Jan-23 18:33N 53°45' E 009°24'1010.4
2015-Jan-23 17:33N 53°53' E 009°12'1110.9
2015-Jan-23 16:33N 53°50' E 008°54'1110.5
2015-Jan-23 15:33N 53°56' E 008°39'1312.8
2015-Jan-23 14:33N 53°60' E 008°18'1313.0
2015-Jan-23 13:33N 53°59' E 007°56'1614.3
2015-Jan-23 12:25N 53°55' E 007°29'1414.6
2015-Jan-23 11:28N 53°51' E 007°06'2814.8
2015-Jan-23 09:32N 53°44' E 006°20'1514.9
2015-Jan-23 08:33N 53°40' E 005°56'1515.0
2015-Jan-23 07:33N 53°35' E 005°32'1515.3
2015-Jan-23 06:33N 53°30' E 005°08'1515.1
2015-Jan-23 05:34N 53°25' E 004°44'1515.2
2015-Jan-23 04:33N 53°12' E 004°32'1514.8
2015-Jan-23 03:31N 52°58' E 004°20'1313.9
2015-Jan-23 02:33N 52°46' E 004°10'1413.7
2015-Jan-23 01:33N 52°35' E 003°57'1313.2
2015-Jan-23 00:33N 52°22' E 003°52'1312.9
2015-Jan-22 23:33N 52°09' E 003°55'1010.0
2015-Jan-22 22:33N 51°60' E 004°02'1313.2
2015-Jan-22 21:33N 51°54' E 004°20'1 0.9
2015-Jan-22 20:33N 51°54' E 004°22'0 0.0
2015-Jan-22 19:33N 51°54' E 004°22'0 0.0
2015-Jan-22 18:33N 51°54' E 004°22'0 0.0
2015-Jan-22 17:33N 51°54' E 004°22'0 0.0
2015-Jan-22 16:30N 51°54' E 004°22'0 0.0
2015-Jan-22 15:30N 51°54' E 004°22'0 0.0
2015-Jan-22 14:30N 51°54' E 004°22'0 0.0
2015-Jan-22 13:33N 51°54' E 004°22'0 0.0
2015-Jan-22 12:27N 51°54' E 004°22'0 0.0
2015-Jan-22 11:33N 51°54' E 004°22'0 0.0
2015-Jan-22 10:33N 51°54' E 004°22'0 0.0
2015-Jan-22 09:33N 51°54' E 004°22'0 0.0
2015-Jan-22 08:33N 51°54' E 004°22'0 0.0
2015-Jan-22 07:33N 51°54' E 004°22'0 0.0
2015-Jan-22 06:27N 51°54' E 004°22'0 0.0
2015-Jan-22 05:33N 51°54' E 004°22'0 0.0
2015-Jan-22 04:33N 51°54' E 004°22'0 0.0
2015-Jan-22 03:30N 51°54' E 004°22'0 0.0
2015-Jan-22 01:33N 51°54' E 004°22'0 0.0
2015-Jan-22 00:32N 51°54' E 004°22'0 0.0
2015-Jan-21 23:32N 51°54' E 004°22'0 0.0
2015-Jan-21 22:50N 51°54' E 004°22'0 0.0
2015-Jan-21 22:44N 51°54' E 004°22'0 0.0
2015-Jan-21 22:26N 51°54' E 004°22'0 0.0
2015-Jan-21 21:32N 51°54' E 004°22'0 0.0
2015-Jan-21 20:32N 51°54' E 004°22'0 0.0
2015-Jan-21 19:29N 51°54' E 004°22'0 0.0
2015-Jan-21 18:32N 51°54' E 004°22'0 0.0
2015-Jan-21 17:32N 51°54' E 004°22'0 0.0
2015-Jan-21 16:26N 51°54' E 004°22'0 0.0
2015-Jan-21 15:33N 51°54' E 004°22'0 0.0
2015-Jan-21 14:32N 51°54' E 004°22'0 0.3
2015-Jan-21 13:34N 51°54' E 004°22'10 9.5
2015-Jan-21 12:33N 51°58' E 004°08'1110.9
2015-Jan-21 11:33N 51°60' E 003°51'4410.9
2015-Jan-21 07:31N 51°47' E 002°43'1111.4
2015-Jan-21 06:32N 51°39' E 002°29'1212.6
2015-Jan-21 05:33N 51°30' E 002°16'1413.3
2015-Jan-21 04:28N 51°17' E 002°07'1213.4
2015-Jan-21 03:33N 51°09' E 001°52'1414.4
2015-Jan-21 02:33N 50°59' E 001°36'  

Dump ship's entire track history